sensor_id;sensor_type;location;lat;lon;timestamp;temperature;humidity
54485;DHT22;45006;56.958;24.166;2023-08-24T00:02:02;24.60;79.50
54485;DHT22;45006;56.958;24.166;2023-08-24T00:04:29;24.60;79.50
54485;DHT22;45006;56.958;24.166;2023-08-24T00:06:55;24.60;79.50
54485;DHT22;45006;56.958;24.166;2023-08-24T00:09:23;24.60;79.40
54485;DHT22;45006;56.958;24.166;2023-08-24T00:11:50;24.60;79.40
54485;DHT22;45006;56.958;24.166;2023-08-24T00:14:17;24.60;79.40
54485;DHT22;45006;56.958;24.166;2023-08-24T00:16:44;24.60;79.50
54485;DHT22;45006;56.958;24.166;2023-08-24T00:19:11;24.60;79.50
54485;DHT22;45006;56.958;24.166;2023-08-24T00:21:39;24.60;79.50
54485;DHT22;45006;56.958;24.166;2023-08-24T00:24:06;24.60;79.40
54485;DHT22;45006;56.958;24.166;2023-08-24T00:26:33;24.60;79.40
54485;DHT22;45006;56.958;24.166;2023-08-24T00:29:00;24.60;79.40
54485;DHT22;45006;56.958;24.166;2023-08-24T00:31:27;24.50;79.40
54485;DHT22;45006;56.958;24.166;2023-08-24T00:33:54;24.50;79.40
54485;DHT22;45006;56.958;24.166;2023-08-24T00:36:21;24.60;79.40
54485;DHT22;45006;56.958;24.166;2023-08-24T00:38:50;24.60;79.40
54485;DHT22;45006;56.958;24.166;2023-08-24T00:41:18;24.50;79.40
54485;DHT22;45006;56.958;24.166;2023-08-24T00:43:45;24.60;79.40
54485;DHT22;45006;56.958;24.166;2023-08-24T00:46:13;24.60;79.40
54485;DHT22;45006;56.958;24.166;2023-08-24T00:48:40;24.50;79.30
54485;DHT22;45006;56.958;24.166;2023-08-24T00:51:07;24.50;79.40
54485;DHT22;45006;56.958;24.166;2023-08-24T00:53:35;24.50;79.40
54485;DHT22;45006;56.958;24.166;2023-08-24T00:56:03;24.50;79.40
54485;DHT22;45006;56.958;24.166;2023-08-24T00:58:31;24.50;79.30
54485;DHT22;45006;56.958;24.166;2023-08-24T01:00:58;24.50;79.30
54485;DHT22;45006;56.958;24.166;2023-08-24T01:03:25;24.50;79.30
54485;DHT22;45006;56.958;24.166;2023-08-24T01:05:52;24.50;79.40
54485;DHT22;45006;56.958;24.166;2023-08-24T01:08:21;24.50;79.30
54485;DHT22;45006;56.958;24.166;2023-08-24T01:16:26;24.50;79.30
54485;DHT22;45006;56.958;24.166;2023-08-24T01:18:56;24.50;79.30
54485;DHT22;45006;56.958;24.166;2023-08-24T01:21:24;24.50;79.30
54485;DHT22;45006;56.958;24.166;2023-08-24T01:26:37;24.50;79.30
54485;DHT22;45006;56.958;24.166;2023-08-24T01:29:05;24.50;79.30
54485;DHT22;45006;56.958;24.166;2023-08-24T01:31:33;24.50;79.30
54485;DHT22;45006;56.958;24.166;2023-08-24T01:34:00;24.50;79.30
54485;DHT22;45006;56.958;24.166;2023-08-24T01:36:28;24.50;79.30
54485;DHT22;45006;56.958;24.166;2023-08-24T01:39:21;24.50;79.30
54485;DHT22;45006;56.958;24.166;2023-08-24T01:41:53;24.50;79.30
54485;DHT22;45006;56.958;24.166;2023-08-24T01:44:23;24.50;79.30
54485;DHT22;45006;56.958;24.166;2023-08-24T01:46:52;24.50;79.30
54485;DHT22;45006;56.958;24.166;2023-08-24T01:49:19;24.50;79.30
54485;DHT22;45006;56.958;24.166;2023-08-24T01:51:47;24.50;79.30
54485;DHT22;45006;56.958;24.166;2023-08-24T01:54:15;24.50;79.40
54485;DHT22;45006;56.958;24.166;2023-08-24T01:56:42;24.50;79.30
54485;DHT22;45006;56.958;24.166;2023-08-24T01:59:09;24.50;79.30
54485;DHT22;45006;56.958;24.166;2023-08-24T02:01:36;24.50;79.30
54485;DHT22;45006;56.958;24.166;2023-08-24T02:04:03;24.50;79.30
54485;DHT22;45006;56.958;24.166;2023-08-24T02:06:30;24.50;79.30
54485;DHT22;45006;56.958;24.166;2023-08-24T02:08:57;24.50;79.30
54485;DHT22;45006;56.958;24.166;2023-08-24T02:11:24;24.50;79.30
54485;DHT22;45006;56.958;24.166;2023-08-24T02:13:51;24.50;79.30
54485;DHT22;45006;56.958;24.166;2023-08-24T02:16:18;24.50;79.30
54485;DHT22;45006;56.958;24.166;2023-08-24T02:18:45;24.50;79.30
54485;DHT22;45006;56.958;24.166;2023-08-24T02:21:12;24.50;79.30
54485;DHT22;45006;56.958;24.166;2023-08-24T02:23:40;24.50;79.30
54485;DHT22;45006;56.958;24.166;2023-08-24T02:26:07;24.50;79.30
54485;DHT22;45006;56.958;24.166;2023-08-24T02:28:36;24.50;79.30
54485;DHT22;45006;56.958;24.166;2023-08-24T02:31:04;24.50;79.30
54485;DHT22;45006;56.958;24.166;2023-08-24T02:33:33;24.50;79.30
54485;DHT22;45006;56.958;24.166;2023-08-24T02:36:00;24.50;79.30
54485;DHT22;45006;56.958;24.166;2023-08-24T02:38:27;24.50;79.30
54485;DHT22;45006;56.958;24.166;2023-08-24T02:41:05;24.50;79.20
54485;DHT22;45006;56.958;24.166;2023-08-24T02:43:33;24.50;79.30
54485;DHT22;45006;56.958;24.166;2023-08-24T02:46:07;24.50;79.30
54485;DHT22;45006;56.958;24.166;2023-08-24T02:48:35;24.50;79.30
54485;DHT22;45006;56.958;24.166;2023-08-24T02:51:04;24.50;79.20
54485;DHT22;45006;56.958;24.166;2023-08-24T02:53:32;24.40;79.20
54485;DHT22;45006;56.958;24.166;2023-08-24T02:56:00;24.50;79.30
54485;DHT22;45006;56.958;24.166;2023-08-24T02:58:27;24.50;79.20
54485;DHT22;45006;56.958;24.166;2023-08-24T03:00:54;24.50;79.30
54485;DHT22;45006;56.958;24.166;2023-08-24T03:03:21;24.50;79.20
54485;DHT22;45006;56.958;24.166;2023-08-24T03:06:07;24.50;79.30
54485;DHT22;45006;56.958;24.166;2023-08-24T03:08:35;24.50;79.20
54485;DHT22;45006;56.958;24.166;2023-08-24T03:11:02;24.50;79.30
54485;DHT22;45006;56.958;24.166;2023-08-24T03:13:30;24.40;79.20
54485;DHT22;45006;56.958;24.166;2023-08-24T03:15:57;24.40;79.80
54485;DHT22;45006;56.958;24.166;2023-08-24T03:18:29;24.40;79.20
54485;DHT22;45006;56.958;24.166;2023-08-24T03:20:56;24.40;79.20
54485;DHT22;45006;56.958;24.166;2023-08-24T03:23:23;24.40;79.20
54485;DHT22;45006;56.958;24.166;2023-08-24T03:25:51;24.40;79.10
54485;DHT22;45006;56.958;24.166;2023-08-24T03:28:18;24.40;79.10
54485;DHT22;45006;56.958;24.166;2023-08-24T03:30:47;24.40;79.10
54485;DHT22;45006;56.958;24.166;2023-08-24T03:33:15;24.40;79.10
54485;DHT22;45006;56.958;24.166;2023-08-24T03:35:42;24.50;79.20
54485;DHT22;45006;56.958;24.166;2023-08-24T03:38:09;24.40;79.10
54485;DHT22;45006;56.958;24.166;2023-08-24T03:40:37;24.40;79.10
54485;DHT22;45006;56.958;24.166;2023-08-24T03:43:04;24.40;79.10
54485;DHT22;45006;56.958;24.166;2023-08-24T03:45:31;24.40;79.10
54485;DHT22;45006;56.958;24.166;2023-08-24T03:47:58;24.40;79.10
54485;DHT22;45006;56.958;24.166;2023-08-24T03:50:25;24.40;79.10
54485;DHT22;45006;56.958;24.166;2023-08-24T03:52:54;24.40;79.10
54485;DHT22;45006;56.958;24.166;2023-08-24T03:55:21;24.40;79.10
54485;DHT22;45006;56.958;24.166;2023-08-24T03:57:49;24.40;79.10
54485;DHT22;45006;56.958;24.166;2023-08-24T04:00:17;24.40;79.10
54485;DHT22;45006;56.958;24.166;2023-08-24T04:02:44;24.40;79.10
54485;DHT22;45006;56.958;24.166;2023-08-24T04:05:12;24.40;79.10
54485;DHT22;45006;56.958;24.166;2023-08-24T04:07:39;24.40;79.10
54485;DHT22;45006;56.958;24.166;2023-08-24T04:10:08;24.40;79.10
54485;DHT22;45006;56.958;24.166;2023-08-24T04:12:36;24.40;79.10
54485;DHT22;45006;56.958;24.166;2023-08-24T04:15:03;24.40;79.10
54485;DHT22;45006;56.958;24.166;2023-08-24T04:17:32;24.40;79.10
54485;DHT22;45006;56.958;24.166;2023-08-24T04:19:59;24.40;79.10
54485;DHT22;45006;56.958;24.166;2023-08-24T04:22:26;24.40;79.10
54485;DHT22;45006;56.958;24.166;2023-08-24T04:24:53;24.40;79.10
54485;DHT22;45006;56.958;24.166;2023-08-24T04:27:20;24.40;79.00
54485;DHT22;45006;56.958;24.166;2023-08-24T04:29:48;24.40;79.00
54485;DHT22;45006;56.958;24.166;2023-08-24T04:32:15;24.40;79.10
54485;DHT22;45006;56.958;24.166;2023-08-24T04:34:42;24.40;79.10
54485;DHT22;45006;56.958;24.166;2023-08-24T04:37:09;24.40;79.10
54485;DHT22;45006;56.958;24.166;2023-08-24T04:39:36;24.40;79.10
54485;DHT22;45006;56.958;24.166;2023-08-24T04:42:04;24.40;79.10
54485;DHT22;45006;56.958;24.166;2023-08-24T04:44:32;24.40;79.10
54485;DHT22;45006;56.958;24.166;2023-08-24T04:46:59;24.40;79.00
54485;DHT22;45006;56.958;24.166;2023-08-24T04:49:26;24.40;79.00
54485;DHT22;45006;56.958;24.166;2023-08-24T04:51:53;24.40;79.00
54485;DHT22;45006;56.958;24.166;2023-08-24T04:54:20;24.40;79.00
54485;DHT22;45006;56.958;24.166;2023-08-24T04:56:48;24.40;79.00
54485;DHT22;45006;56.958;24.166;2023-08-24T04:59:16;24.40;79.00
54485;DHT22;45006;56.958;24.166;2023-08-24T05:01:43;24.40;79.00
54485;DHT22;45006;56.958;24.166;2023-08-24T05:04:10;24.40;79.00
54485;DHT22;45006;56.958;24.166;2023-08-24T05:06:37;24.40;79.10
54485;DHT22;45006;56.958;24.166;2023-08-24T05:09:04;24.40;79.00
54485;DHT22;45006;56.958;24.166;2023-08-24T05:11:31;24.40;79.00
54485;DHT22;45006;56.958;24.166;2023-08-24T05:13:58;24.40;79.00
54485;DHT22;45006;56.958;24.166;2023-08-24T05:16:25;24.40;79.00
54485;DHT22;45006;56.958;24.166;2023-08-24T05:18:52;24.40;79.00
54485;DHT22;45006;56.958;24.166;2023-08-24T05:21:19;24.40;79.00
54485;DHT22;45006;56.958;24.166;2023-08-24T05:23:46;24.40;79.10
54485;DHT22;45006;56.958;24.166;2023-08-24T05:26:13;24.40;79.00
54485;DHT22;45006;56.958;24.166;2023-08-24T05:28:40;24.40;79.00
54485;DHT22;45006;56.958;24.166;2023-08-24T05:31:07;24.40;79.00
54485;DHT22;45006;56.958;24.166;2023-08-24T05:33:34;24.40;79.60
54485;DHT22;45006;56.958;24.166;2023-08-24T05:36:01;24.40;79.00
54485;DHT22;45006;56.958;24.166;2023-08-24T05:38:28;24.40;79.00
54485;DHT22;45006;56.958;24.166;2023-08-24T05:40:55;24.40;78.90
54485;DHT22;45006;56.958;24.166;2023-08-24T05:43:22;24.40;78.90
54485;DHT22;45006;56.958;24.166;2023-08-24T05:45:49;24.40;78.90
54485;DHT22;45006;56.958;24.166;2023-08-24T05:48:16;24.40;78.90
54485;DHT22;45006;56.958;24.166;2023-08-24T05:50:46;24.40;78.90
54485;DHT22;45006;56.958;24.166;2023-08-24T05:53:14;24.40;78.80
54485;DHT22;45006;56.958;24.166;2023-08-24T05:55:41;24.40;78.80
54485;DHT22;45006;56.958;24.166;2023-08-24T05:58:08;24.40;78.80
54485;DHT22;45006;56.958;24.166;2023-08-24T06:00:35;24.40;78.80
54485;DHT22;45006;56.958;24.166;2023-08-24T06:03:03;24.40;78.80
54485;DHT22;45006;56.958;24.166;2023-08-24T06:05:30;24.40;78.90
54485;DHT22;45006;56.958;24.166;2023-08-24T06:07:58;24.40;78.90
54485;DHT22;45006;56.958;24.166;2023-08-24T06:10:25;24.40;78.90
54485;DHT22;45006;56.958;24.166;2023-08-24T06:12:54;24.40;78.90
54485;DHT22;45006;56.958;24.166;2023-08-24T06:15:20;24.40;79.00
54485;DHT22;45006;56.958;24.166;2023-08-24T06:17:51;24.40;78.90
54485;DHT22;45006;56.958;24.166;2023-08-24T06:20:19;24.40;78.90
54485;DHT22;45006;56.958;24.166;2023-08-24T06:22:47;24.40;78.90
54485;DHT22;45006;56.958;24.166;2023-08-24T06:25:14;24.40;78.90
54485;DHT22;45006;56.958;24.166;2023-08-24T06:27:41;24.40;78.80
54485;DHT22;45006;56.958;24.166;2023-08-24T06:30:08;24.40;78.90
54485;DHT22;45006;56.958;24.166;2023-08-24T06:32:35;24.40;78.90
54485;DHT22;45006;56.958;24.166;2023-08-24T06:35:04;24.40;78.90
54485;DHT22;45006;56.958;24.166;2023-08-24T06:37:32;24.40;78.90
54485;DHT22;45006;56.958;24.166;2023-08-24T06:39:59;24.40;78.90
54485;DHT22;45006;56.958;24.166;2023-08-24T06:42:27;24.40;78.90
54485;DHT22;45006;56.958;24.166;2023-08-24T06:44:54;24.40;78.90
54485;DHT22;45006;56.958;24.166;2023-08-24T06:47:21;24.40;78.90
54485;DHT22;45006;56.958;24.166;2023-08-24T06:49:48;24.40;78.90
54485;DHT22;45006;56.958;24.166;2023-08-24T06:52:15;24.40;78.80
54485;DHT22;45006;56.958;24.166;2023-08-24T06:54:42;24.40;78.80
54485;DHT22;45006;56.958;24.166;2023-08-24T06:57:09;24.40;78.80
54485;DHT22;45006;56.958;24.166;2023-08-24T06:59:36;24.40;78.80
54485;DHT22;45006;56.958;24.166;2023-08-24T07:02:03;24.40;78.70
54485;DHT22;45006;56.958;24.166;2023-08-24T07:04:31;24.40;78.70
54485;DHT22;45006;56.958;24.166;2023-08-24T07:06:58;24.50;78.70
54485;DHT22;45006;56.958;24.166;2023-08-24T07:09:25;24.50;78.70
54485;DHT22;45006;56.958;24.166;2023-08-24T07:11:52;24.50;78.60
54485;DHT22;45006;56.958;24.166;2023-08-24T07:14:19;24.50;78.80
54485;DHT22;45006;56.958;24.166;2023-08-24T07:16:48;24.50;78.60
54485;DHT22;45006;56.958;24.166;2023-08-24T07:19:15;24.50;78.50
54485;DHT22;45006;56.958;24.166;2023-08-24T07:21:43;24.50;78.50
54485;DHT22;45006;56.958;24.166;2023-08-24T07:24:11;24.50;78.40
54485;DHT22;45006;56.958;24.166;2023-08-24T07:26:40;24.50;78.40
54485;DHT22;45006;56.958;24.166;2023-08-24T07:29:08;24.50;79.00
54485;DHT22;45006;56.958;24.166;2023-08-24T07:31:36;24.60;78.40
54485;DHT22;45006;56.958;24.166;2023-08-24T07:34:05;24.60;78.40
54485;DHT22;45006;56.958;24.166;2023-08-24T07:36:32;24.60;78.40
54485;DHT22;45006;56.958;24.166;2023-08-24T07:38:59;24.60;78.30
54485;DHT22;45006;56.958;24.166;2023-08-24T07:41:26;24.60;78.40
54485;DHT22;45006;56.958;24.166;2023-08-24T07:43:53;24.60;78.20
54485;DHT22;45006;56.958;24.166;2023-08-24T07:46:20;24.60;78.20
54485;DHT22;45006;56.958;24.166;2023-08-24T07:48:47;24.60;78.20
54485;DHT22;45006;56.958;24.166;2023-08-24T07:51:14;24.60;78.20
54485;DHT22;45006;56.958;24.166;2023-08-24T07:53:41;24.60;78.20
54485;DHT22;45006;56.958;24.166;2023-08-24T07:56:08;24.60;78.20
54485;DHT22;45006;56.958;24.166;2023-08-24T07:58:35;24.60;78.20
54485;DHT22;45006;56.958;24.166;2023-08-24T08:01:01;24.60;78.20
54485;DHT22;45006;56.958;24.166;2023-08-24T08:03:28;24.60;78.20
54485;DHT22;45006;56.958;24.166;2023-08-24T08:05:57;24.60;78.30
54485;DHT22;45006;56.958;24.166;2023-08-24T08:08:25;24.60;78.20
54485;DHT22;45006;56.958;24.166;2023-08-24T08:10:59;24.60;78.20
54485;DHT22;45006;56.958;24.166;2023-08-24T08:13:28;24.60;78.20
54485;DHT22;45006;56.958;24.166;2023-08-24T08:16:05;24.60;78.20
54485;DHT22;45006;56.958;24.166;2023-08-24T08:18:33;24.60;78.20
54485;DHT22;45006;56.958;24.166;2023-08-24T08:21:01;24.60;78.20
54485;DHT22;45006;56.958;24.166;2023-08-24T08:23:28;24.60;78.20
54485;DHT22;45006;56.958;24.166;2023-08-24T08:25:55;24.60;78.20
54485;DHT22;45006;56.958;24.166;2023-08-24T08:28:23;24.60;78.20
54485;DHT22;45006;56.958;24.166;2023-08-24T08:30:50;24.60;78.20
54485;DHT22;45006;56.958;24.166;2023-08-24T08:33:17;24.60;78.20
54485;DHT22;45006;56.958;24.166;2023-08-24T08:35:45;24.60;78.20
54485;DHT22;45006;56.958;24.166;2023-08-24T08:38:11;24.60;78.20
54485;DHT22;45006;56.958;24.166;2023-08-24T08:40:39;24.60;78.20
54485;DHT22;45006;56.958;24.166;2023-08-24T08:43:07;24.60;78.20
54485;DHT22;45006;56.958;24.166;2023-08-24T08:45:34;24.60;78.20
54485;DHT22;45006;56.958;24.166;2023-08-24T08:48:02;24.60;78.20
54485;DHT22;45006;56.958;24.166;2023-08-24T08:50:32;24.60;78.20
54485;DHT22;45006;56.958;24.166;2023-08-24T08:53:02;24.60;78.20
54485;DHT22;45006;56.958;24.166;2023-08-24T08:55:31;24.60;78.20
54485;DHT22;45006;56.958;24.166;2023-08-24T08:57:58;24.60;78.20
54485;DHT22;45006;56.958;24.166;2023-08-24T09:00:27;24.60;78.10
54485;DHT22;45006;56.958;24.166;2023-08-24T09:02:56;24.70;78.10
54485;DHT22;45006;56.958;24.166;2023-08-24T09:05:24;24.70;78.10
54485;DHT22;45006;56.958;24.166;2023-08-24T09:07:56;24.70;78.10
54485;DHT22;45006;56.958;24.166;2023-08-24T09:10:24;24.70;78.00
54485;DHT22;45006;56.958;24.166;2023-08-24T09:12:51;24.70;78.00
54485;DHT22;45006;56.958;24.166;2023-08-24T09:15:25;24.70;78.00
54485;DHT22;45006;56.958;24.166;2023-08-24T09:17:54;24.70;78.00
54485;DHT22;45006;56.958;24.166;2023-08-24T09:20:29;24.70;77.90
54485;DHT22;45006;56.958;24.166;2023-08-24T09:22:57;24.70;77.90
54485;DHT22;45006;56.958;24.166;2023-08-24T09:25:24;24.70;77.90
54485;DHT22;45006;56.958;24.166;2023-08-24T09:28:03;24.70;77.90
54485;DHT22;45006;56.958;24.166;2023-08-24T09:30:35;24.70;77.90
54485;DHT22;45006;56.958;24.166;2023-08-24T09:33:12;24.70;77.90
54485;DHT22;45006;56.958;24.166;2023-08-24T09:35:39;24.70;77.90
54485;DHT22;45006;56.958;24.166;2023-08-24T09:38:20;24.70;77.90
54485;DHT22;45006;56.958;24.166;2023-08-24T09:40:50;24.70;77.90
54485;DHT22;45006;56.958;24.166;2023-08-24T09:43:18;24.70;77.90
54485;DHT22;45006;56.958;24.166;2023-08-24T09:45:55;24.70;77.80
54485;DHT22;45006;56.958;24.166;2023-08-24T09:48:23;24.70;77.90
54485;DHT22;45006;56.958;24.166;2023-08-24T09:50:57;24.70;77.90
54485;DHT22;45006;56.958;24.166;2023-08-24T09:53:25;24.70;77.80
54485;DHT22;45006;56.958;24.166;2023-08-24T09:55:58;24.70;77.80
54485;DHT22;45006;56.958;24.166;2023-08-24T09:58:26;24.70;77.70
54485;DHT22;45006;56.958;24.166;2023-08-24T10:00:55;24.70;77.70
54485;DHT22;45006;56.958;24.166;2023-08-24T10:03:25;24.70;77.70
54485;DHT22;45006;56.958;24.166;2023-08-24T10:05:57;24.80;77.80
54485;DHT22;45006;56.958;24.166;2023-08-24T10:08:36;24.70;77.70
54485;DHT22;45006;56.958;24.166;2023-08-24T10:11:05;24.80;77.70
54485;DHT22;45006;56.958;24.166;2023-08-24T10:14:40;24.80;77.70
54485;DHT22;45006;56.958;24.166;2023-08-24T10:16:36;24.80;77.70
54485;DHT22;45006;56.958;24.166;2023-08-24T10:19:03;24.80;77.70
54485;DHT22;45006;56.958;24.166;2023-08-24T10:21:31;24.80;77.70
54485;DHT22;45006;56.958;24.166;2023-08-24T10:23:58;24.70;77.70
54485;DHT22;45006;56.958;24.166;2023-08-24T10:26:27;24.80;77.70
54485;DHT22;45006;56.958;24.166;2023-08-24T10:28:55;24.70;77.70
54485;DHT22;45006;56.958;24.166;2023-08-24T10:31:24;24.80;77.80
54485;DHT22;45006;56.958;24.166;2023-08-24T10:33:55;24.70;77.70
54485;DHT22;45006;56.958;24.166;2023-08-24T10:36:23;24.70;77.70
54485;DHT22;45006;56.958;24.166;2023-08-24T10:38:50;24.70;77.70
54485;DHT22;45006;56.958;24.166;2023-08-24T10:41:17;24.70;77.70
54485;DHT22;45006;56.958;24.166;2023-08-24T10:43:49;24.70;77.70
54485;DHT22;45006;56.958;24.166;2023-08-24T10:46:17;24.70;77.80
54485;DHT22;45006;56.958;24.166;2023-08-24T10:54:00;24.70;77.80
54485;DHT22;45006;56.958;24.166;2023-08-24T10:56:33;24.70;77.90
54485;DHT22;45006;56.958;24.166;2023-08-24T10:59:13;24.70;77.90
54485;DHT22;45006;56.958;24.166;2023-08-24T11:02:03;24.70;77.80
54485;DHT22;45006;56.958;24.166;2023-08-24T11:04:30;24.70;77.90
54485;DHT22;45006;56.958;24.166;2023-08-24T11:06:59;24.70;77.90
54485;DHT22;45006;56.958;24.166;2023-08-24T11:09:45;24.70;77.90
54485;DHT22;45006;56.958;24.166;2023-08-24T11:12:15;24.70;78.00
54485;DHT22;45006;56.958;24.166;2023-08-24T11:14:52;24.70;78.00
54485;DHT22;45006;56.958;24.166;2023-08-24T11:17:29;24.70;78.00
54485;DHT22;45006;56.958;24.166;2023-08-24T11:20:00;24.70;78.10
54485;DHT22;45006;56.958;24.166;2023-08-24T11:22:31;24.70;78.00
54485;DHT22;45006;56.958;24.166;2023-08-24T11:24:59;24.70;78.10
54485;DHT22;45006;56.958;24.166;2023-08-24T11:27:26;24.70;78.00
54485;DHT22;45006;56.958;24.166;2023-08-24T11:29:58;24.70;78.10
54485;DHT22;45006;56.958;24.166;2023-08-24T11:32:26;24.70;78.00
54485;DHT22;45006;56.958;24.166;2023-08-24T11:34:54;24.70;77.90
54485;DHT22;45006;56.958;24.166;2023-08-24T11:37:22;24.70;77.90
54485;DHT22;45006;56.958;24.166;2023-08-24T11:39:49;24.70;77.90
54485;DHT22;45006;56.958;24.166;2023-08-24T11:42:16;24.70;77.90
54485;DHT22;45006;56.958;24.166;2023-08-24T11:44:49;24.70;77.90
54485;DHT22;45006;56.958;24.166;2023-08-24T11:47:19;24.70;77.90
54485;DHT22;45006;56.958;24.166;2023-08-24T11:49:47;24.70;77.80
54485;DHT22;45006;56.958;24.166;2023-08-24T11:52:14;24.70;77.80
54485;DHT22;45006;56.958;24.166;2023-08-24T11:54:43;24.70;77.80
54485;DHT22;45006;56.958;24.166;2023-08-24T11:57:10;24.70;77.70
54485;DHT22;45006;56.958;24.166;2023-08-24T11:59:39;24.70;77.80
54485;DHT22;45006;56.958;24.166;2023-08-24T12:02:08;24.70;77.80
54485;DHT22;45006;56.958;24.166;2023-08-24T12:04:42;24.70;77.80
54485;DHT22;45006;56.958;24.166;2023-08-24T12:07:14;24.70;77.80
54485;DHT22;45006;56.958;24.166;2023-08-24T12:09:42;24.70;77.80
54485;DHT22;45006;56.958;24.166;2023-08-24T12:12:16;24.70;77.90
54485;DHT22;45006;56.958;24.166;2023-08-24T12:14:44;24.70;77.80
54485;DHT22;45006;56.958;24.166;2023-08-24T12:17:13;24.70;77.80
54485;DHT22;45006;56.958;24.166;2023-08-24T12:19:57;24.70;77.90
54485;DHT22;45006;56.958;24.166;2023-08-24T12:22:24;24.70;77.90
54485;DHT22;45006;56.958;24.166;2023-08-24T12:24:51;24.70;78.00
54485;DHT22;45006;56.958;24.166;2023-08-24T12:27:19;24.70;78.00
54485;DHT22;45006;56.958;24.166;2023-08-24T12:29:46;24.70;78.10
54485;DHT22;45006;56.958;24.166;2023-08-24T12:32:14;24.70;78.10
54485;DHT22;45006;56.958;24.166;2023-08-24T12:34:42;24.70;78.10
54485;DHT22;45006;56.958;24.166;2023-08-24T12:37:09;24.70;78.00
54485;DHT22;45006;56.958;24.166;2023-08-24T12:39:36;24.70;78.00
54485;DHT22;45006;56.958;24.166;2023-08-24T12:42:04;24.70;78.00
54485;DHT22;45006;56.958;24.166;2023-08-24T12:44:32;24.70;78.00
54485;DHT22;45006;56.958;24.166;2023-08-24T12:46:59;24.70;78.00
54485;DHT22;45006;56.958;24.166;2023-08-24T12:49:26;24.70;77.90
54485;DHT22;45006;56.958;24.166;2023-08-24T12:51:53;24.70;78.00
54485;DHT22;45006;56.958;24.166;2023-08-24T12:54:20;24.70;78.00
54485;DHT22;45006;56.958;24.166;2023-08-24T12:56:48;24.70;78.00
54485;DHT22;45006;56.958;24.166;2023-08-24T12:59:15;24.70;77.90
54485;DHT22;45006;56.958;24.166;2023-08-24T13:01:42;24.70;77.90
54485;DHT22;45006;56.958;24.166;2023-08-24T13:04:09;24.70;78.00
54485;DHT22;45006;56.958;24.166;2023-08-24T13:06:35;24.70;78.00
54485;DHT22;45006;56.958;24.166;2023-08-24T13:09:02;24.70;78.00
54485;DHT22;45006;56.958;24.166;2023-08-24T13:11:30;24.70;78.00
54485;DHT22;45006;56.958;24.166;2023-08-24T13:13:57;24.70;77.90
54485;DHT22;45006;56.958;24.166;2023-08-24T13:16:24;24.70;77.90
54485;DHT22;45006;56.958;24.166;2023-08-24T13:18:51;24.70;77.90
54485;DHT22;45006;56.958;24.166;2023-08-24T13:21:18;24.70;78.00
54485;DHT22;45006;56.958;24.166;2023-08-24T13:23:46;24.70;77.90
54485;DHT22;45006;56.958;24.166;2023-08-24T13:26:20;24.70;77.90
54485;DHT22;45006;56.958;24.166;2023-08-24T13:28:47;24.70;78.00
54485;DHT22;45006;56.958;24.166;2023-08-24T13:31:15;24.70;78.00
54485;DHT22;45006;56.958;24.166;2023-08-24T13:33:44;24.70;78.00
54485;DHT22;45006;56.958;24.166;2023-08-24T13:36:11;24.70;78.00
54485;DHT22;45006;56.958;24.166;2023-08-24T13:38:38;24.70;78.00
54485;DHT22;45006;56.958;24.166;2023-08-24T13:41:05;24.70;78.00
54485;DHT22;45006;56.958;24.166;2023-08-24T13:43:32;24.70;78.00
54485;DHT22;45006;56.958;24.166;2023-08-24T13:45:59;24.70;78.00
54485;DHT22;45006;56.958;24.166;2023-08-24T13:48:30;24.70;78.00
54485;DHT22;45006;56.958;24.166;2023-08-24T13:51:00;24.70;78.00
54485;DHT22;45006;56.958;24.166;2023-08-24T13:53:27;24.70;78.00
54485;DHT22;45006;56.958;24.166;2023-08-24T13:55:54;24.70;78.00
54485;DHT22;45006;56.958;24.166;2023-08-24T13:58:21;24.70;78.00
54485;DHT22;45006;56.958;24.166;2023-08-24T14:00:50;24.70;78.00
54485;DHT22;45006;56.958;24.166;2023-08-24T14:03:21;24.70;78.00
54485;DHT22;45006;56.958;24.166;2023-08-24T14:05:48;24.70;78.00
54485;DHT22;45006;56.958;24.166;2023-08-24T14:08:17;24.70;78.00
54485;DHT22;45006;56.958;24.166;2023-08-24T14:10:43;24.70;78.00
54485;DHT22;45006;56.958;24.166;2023-08-24T14:13:10;24.70;78.20
54485;DHT22;45006;56.958;24.166;2023-08-24T14:15:37;24.70;78.10
54485;DHT22;45006;56.958;24.166;2023-08-24T14:18:04;24.70;78.00
54485;DHT22;45006;56.958;24.166;2023-08-24T14:20:31;24.70;78.10
54485;DHT22;45006;56.958;24.166;2023-08-24T14:22:58;24.70;78.10
54485;DHT22;45006;56.958;24.166;2023-08-24T14:25:25;24.70;78.10
54485;DHT22;45006;56.958;24.166;2023-08-24T14:27:52;24.70;78.10
54485;DHT22;45006;56.958;24.166;2023-08-24T14:30:31;24.70;78.10
54485;DHT22;45006;56.958;24.166;2023-08-24T14:32:58;24.70;78.10
54485;DHT22;45006;56.958;24.166;2023-08-24T14:35:25;24.70;78.20
54485;DHT22;45006;56.958;24.166;2023-08-24T14:37:53;24.70;78.20
54485;DHT22;45006;56.958;24.166;2023-08-24T14:40:20;24.70;78.20
54485;DHT22;45006;56.958;24.166;2023-08-24T14:42:47;24.70;78.20
54485;DHT22;45006;56.958;24.166;2023-08-24T14:45:16;24.70;78.20
54485;DHT22;45006;56.958;24.166;2023-08-24T14:47:45;24.70;78.30
54485;DHT22;45006;56.958;24.166;2023-08-24T14:50:13;24.70;78.30
54485;DHT22;45006;56.958;24.166;2023-08-24T14:52:40;24.70;78.30
54485;DHT22;45006;56.958;24.166;2023-08-24T14:55:08;24.70;78.40
54485;DHT22;45006;56.958;24.166;2023-08-24T14:57:36;24.70;78.40
54485;DHT22;45006;56.958;24.166;2023-08-24T15:00:03;24.70;78.40
54485;DHT22;45006;56.958;24.166;2023-08-24T15:02:32;24.70;78.40
54485;DHT22;45006;56.958;24.166;2023-08-24T15:04:59;24.70;78.40
54485;DHT22;45006;56.958;24.166;2023-08-24T15:07:27;24.70;78.40
54485;DHT22;45006;56.958;24.166;2023-08-24T15:09:54;24.70;78.40
54485;DHT22;45006;56.958;24.166;2023-08-24T15:12:21;24.70;78.40
54485;DHT22;45006;56.958;24.166;2023-08-24T15:14:59;24.70;78.40
54485;DHT22;45006;56.958;24.166;2023-08-24T15:17:28;24.70;78.40
54485;DHT22;45006;56.958;24.166;2023-08-24T15:19:56;24.70;78.40
54485;DHT22;45006;56.958;24.166;2023-08-24T15:22:24;24.60;78.40
54485;DHT22;45006;56.958;24.166;2023-08-24T15:24:52;24.70;78.50
54485;DHT22;45006;56.958;24.166;2023-08-24T15:27:19;24.60;79.00
54485;DHT22;45006;56.958;24.166;2023-08-24T15:29:46;24.60;78.40
54485;DHT22;45006;56.958;24.166;2023-08-24T15:32:13;24.60;78.40
54485;DHT22;45006;56.958;24.166;2023-08-24T15:34:40;24.60;78.40
54485;DHT22;45006;56.958;24.166;2023-08-24T15:37:07;24.60;78.40